sensor_id;sensor_type;location;lat;lon;timestamp;P1;durP1;ratioP1;P2;durP2;ratioP2
76873;SDS011;65841;43.340;27.894;2022-12-08T00:04:41;18.90;;;8.27;;
76873;SDS011;65841;43.340;27.894;2022-12-08T00:07:26;22.40;;;10.65;;
76873;SDS011;65841;43.340;27.894;2022-12-08T00:10:10;23.40;;;9.45;;
76873;SDS011;65841;43.340;27.894;2022-12-08T00:12:37;16.55;;;7.85;;
76873;SDS011;65841;43.340;27.894;2022-12-08T00:15:03;14.35;;;6.32;;
76873;SDS011;65841;43.340;27.894;2022-12-08T00:17:29;15.52;;;7.38;;
76873;SDS011;65841;43.340;27.894;2022-12-08T00:19:55;12.80;;;6.70;;
76873;SDS011;65841;43.340;27.894;2022-12-08T00:22:21;15.73;;;6.90;;
76873;SDS011;65841;43.340;27.894;2022-12-08T00:24:47;18.38;;;7.28;;
76873;SDS011;65841;43.340;27.894;2022-12-08T00:27:14;13.40;;;6.90;;
76873;SDS011;65841;43.340;27.894;2022-12-08T00:29:42;14.43;;;6.65;;
76873;SDS011;65841;43.340;27.894;2022-12-08T00:32:09;13.48;;;6.03;;
76873;SDS011;65841;43.340;27.894;2022-12-08T00:34:35;18.65;;;9.15;;
76873;SDS011;65841;43.340;27.894;2022-12-08T00:37:01;24.20;;;10.35;;
76873;SDS011;65841;43.340;27.894;2022-12-08T00:39:27;25.98;;;11.32;;
76873;SDS011;65841;43.340;27.894;2022-12-08T00:41:54;20.27;;;9.32;;
76873;SDS011;65841;43.340;27.894;2022-12-08T00:44:39;24.50;;;10.18;;
76873;SDS011;65841;43.340;27.894;2022-12-08T00:47:06;24.08;;;10.35;;
76873;SDS011;65841;43.340;27.894;2022-12-08T00:49:32;27.45;;;11.35;;
76873;SDS011;65841;43.340;27.894;2022-12-08T00:51:58;20.67;;;9.00;;
76873;SDS011;65841;43.340;27.894;2022-12-08T00:54:24;22.75;;;8.70;;
76873;SDS011;65841;43.340;27.894;2022-12-08T00:56:50;15.98;;;6.68;;
76873;SDS011;65841;43.340;27.894;2022-12-08T00:59:17;22.23;;;8.27;;
76873;SDS011;65841;43.340;27.894;2022-12-08T01:01:43;26.35;;;8.32;;
76873;SDS011;65841;43.340;27.894;2022-12-08T01:04:11;27.08;;;9.48;;
76873;SDS011;65841;43.340;27.894;2022-12-08T01:06:39;31.77;;;11.70;;
76873;SDS011;65841;43.340;27.894;2022-12-08T01:09:06;27.95;;;10.38;;
76873;SDS011;65841;43.340;27.894;2022-12-08T01:11:33;20.77;;;8.43;;
76873;SDS011;65841;43.340;27.894;2022-12-08T01:13:59;21.80;;;7.40;;
76873;SDS011;65841;43.340;27.894;2022-12-08T01:16:27;29.65;;;8.30;;
76873;SDS011;65841;43.340;27.894;2022-12-08T01:18:55;22.92;;;7.57;;
76873;SDS011;65841;43.340;27.894;2022-12-08T01:21:21;22.70;;;8.50;;
76873;SDS011;65841;43.340;27.894;2022-12-08T01:23:48;21.83;;;7.40;;
76873;SDS011;65841;43.340;27.894;2022-12-08T01:26:15;29.25;;;9.82;;
76873;SDS011;65841;43.340;27.894;2022-12-08T01:28:42;27.20;;;8.30;;
76873;SDS011;65841;43.340;27.894;2022-12-08T01:31:12;26.83;;;8.32;;
76873;SDS011;65841;43.340;27.894;2022-12-08T01:33:39;28.73;;;9.40;;
76873;SDS011;65841;43.340;27.894;2022-12-08T01:36:05;20.27;;;7.85;;
76873;SDS011;65841;43.340;27.894;2022-12-08T01:38:32;23.75;;;7.80;;
76873;SDS011;65841;43.340;27.894;2022-12-08T01:40:58;27.92;;;8.15;;
76873;SDS011;65841;43.340;27.894;2022-12-08T01:43:24;40.97;;;12.60;;
76873;SDS011;65841;43.340;27.894;2022-12-08T01:45:50;22.02;;;8.48;;
76873;SDS011;65841;43.340;27.894;2022-12-08T01:48:17;19.88;;;7.50;;
76873;SDS011;65841;43.340;27.894;2022-12-08T01:50:45;23.88;;;8.30;;
76873;SDS011;65841;43.340;27.894;2022-12-08T01:58:15;17.27;;;6.60;;
76873;SDS011;65841;43.340;27.894;2022-12-08T02:00:43;23.33;;;6.20;;
76873;SDS011;65841;43.340;27.894;2022-12-08T02:03:13;17.50;;;5.88;;
76873;SDS011;65841;43.340;27.894;2022-12-08T02:05:41;21.58;;;6.10;;
76873;SDS011;65841;43.340;27.894;2022-12-08T02:08:08;32.10;;;6.35;;
76873;SDS011;65841;43.340;27.894;2022-12-08T02:10:36;26.58;;;8.25;;
76873;SDS011;65841;43.340;27.894;2022-12-08T02:21:12;31.60;;;9.98;;
76873;SDS011;65841;43.340;27.894;2022-12-08T02:37:07;15.90;;;5.40;;
76873;SDS011;65841;43.340;27.894;2022-12-08T02:39:42;16.35;;;7.20;;
76873;SDS011;65841;43.340;27.894;2022-12-08T02:44:44;17.23;;;6.18;;
76873;SDS011;65841;43.340;27.894;2022-12-08T02:47:16;22.05;;;7.25;;
76873;SDS011;65841;43.340;27.894;2022-12-08T02:49:43;26.75;;;8.45;;
76873;SDS011;65841;43.340;27.894;2022-12-08T02:54:39;17.80;;;6.47;;
76873;SDS011;65841;43.340;27.894;2022-12-08T03:02:22;22.40;;;7.93;;
76873;SDS011;65841;43.340;27.894;2022-12-08T03:07:31;15.75;;;6.10;;
76873;SDS011;65841;43.340;27.894;2022-12-08T03:12:41;15.80;;;5.32;;
76873;SDS011;65841;43.340;27.894;2022-12-08T03:15:09;15.45;;;5.93;;
76873;SDS011;65841;43.340;27.894;2022-12-08T03:17:37;15.50;;;6.18;;
76873;SDS011;65841;43.340;27.894;2022-12-08T03:20:07;13.55;;;6.43;;
76873;SDS011;65841;43.340;27.894;2022-12-08T03:22:34;12.57;;;5.10;;
76873;SDS011;65841;43.340;27.894;2022-12-08T03:25:00;12.30;;;5.45;;
76873;SDS011;65841;43.340;27.894;2022-12-08T03:27:27;15.50;;;5.28;;
76873;SDS011;65841;43.340;27.894;2022-12-08T03:29:55;15.32;;;6.40;;
76873;SDS011;65841;43.340;27.894;2022-12-08T03:34:50;19.58;;;8.15;;
76873;SDS011;65841;43.340;27.894;2022-12-08T03:37:17;17.83;;;6.85;;
76873;SDS011;65841;43.340;27.894;2022-12-08T03:39:43;16.17;;;7.13;;
76873;SDS011;65841;43.340;27.894;2022-12-08T03:42:09;18.42;;;8.48;;
76873;SDS011;65841;43.340;27.894;2022-12-08T03:44:35;18.90;;;7.43;;
76873;SDS011;65841;43.340;27.894;2022-12-08T03:47:01;20.80;;;9.23;;
76873;SDS011;65841;43.340;27.894;2022-12-08T03:49:27;13.68;;;6.93;;
76873;SDS011;65841;43.340;27.894;2022-12-08T03:51:53;13.95;;;5.78;;
76873;SDS011;65841;43.340;27.894;2022-12-08T03:54:20;16.50;;;5.30;;
76873;SDS011;65841;43.340;27.894;2022-12-08T03:56:46;17.23;;;6.22;;
76873;SDS011;65841;43.340;27.894;2022-12-08T03:59:12;9.27;;;4.13;;
76873;SDS011;65841;43.340;27.894;2022-12-08T04:01:38;22.77;;;6.70;;
76873;SDS011;65841;43.340;27.894;2022-12-08T04:04:04;27.80;;;9.55;;
76873;SDS011;65841;43.340;27.894;2022-12-08T04:06:30;20.38;;;6.35;;
76873;SDS011;65841;43.340;27.894;2022-12-08T04:08:56;20.10;;;7.65;;
76873;SDS011;65841;43.340;27.894;2022-12-08T04:11:22;21.58;;;9.38;;
76873;SDS011;65841;43.340;27.894;2022-12-08T04:13:48;20.25;;;8.25;;
76873;SDS011;65841;43.340;27.894;2022-12-08T04:16:16;17.30;;;6.68;;
76873;SDS011;65841;43.340;27.894;2022-12-08T04:18:43;16.25;;;7.07;;
76873;SDS011;65841;43.340;27.894;2022-12-08T04:21:09;18.65;;;7.88;;
76873;SDS011;65841;43.340;27.894;2022-12-08T04:23:35;20.90;;;6.72;;
76873;SDS011;65841;43.340;27.894;2022-12-08T04:26:01;17.17;;;6.07;;
76873;SDS011;65841;43.340;27.894;2022-12-08T04:28:27;16.73;;;6.47;;
76873;SDS011;65841;43.340;27.894;2022-12-08T04:30:53;19.17;;;7.03;;
76873;SDS011;65841;43.340;27.894;2022-12-08T04:33:20;19.67;;;7.18;;
76873;SDS011;65841;43.340;27.894;2022-12-08T04:35:46;23.77;;;8.75;;
76873;SDS011;65841;43.340;27.894;2022-12-08T04:38:12;22.25;;;7.88;;
76873;SDS011;65841;43.340;27.894;2022-12-08T04:40:39;19.00;;;7.32;;
76873;SDS011;65841;43.340;27.894;2022-12-08T04:43:05;18.52;;;7.10;;
76873;SDS011;65841;43.340;27.894;2022-12-08T04:45:31;20.40;;;7.18;;
76873;SDS011;65841;43.340;27.894;2022-12-08T04:47:58;42.33;;;13.40;;
76873;SDS011;65841;43.340;27.894;2022-12-08T04:50:25;15.82;;;7.15;;
76873;SDS011;65841;43.340;27.894;2022-12-08T04:52:51;22.65;;;9.98;;
76873;SDS011;65841;43.340;27.894;2022-12-08T04:55:17;17.33;;;7.68;;
76873;SDS011;65841;43.340;27.894;2022-12-08T04:57:43;29.85;;;10.93;;
76873;SDS011;65841;43.340;27.894;2022-12-08T05:00:09;19.15;;;7.45;;
76873;SDS011;65841;43.340;27.894;2022-12-08T05:02:36;17.30;;;6.90;;
76873;SDS011;65841;43.340;27.894;2022-12-08T05:05:05;26.40;;;8.70;;
76873;SDS011;65841;43.340;27.894;2022-12-08T05:07:31;24.92;;;9.65;;
76873;SDS011;65841;43.340;27.894;2022-12-08T05:09:57;26.83;;;9.35;;
76873;SDS011;65841;43.340;27.894;2022-12-08T05:12:23;28.92;;;12.45;;
76873;SDS011;65841;43.340;27.894;2022-12-08T05:14:49;23.05;;;9.23;;
76873;SDS011;65841;43.340;27.894;2022-12-08T05:17:16;36.58;;;11.38;;
76873;SDS011;65841;43.340;27.894;2022-12-08T05:19:42;44.05;;;14.02;;
76873;SDS011;65841;43.340;27.894;2022-12-08T05:22:08;40.88;;;14.07;;
76873;SDS011;65841;43.340;27.894;2022-12-08T05:24:34;33.28;;;10.77;;
76873;SDS011;65841;43.340;27.894;2022-12-08T05:27:01;28.63;;;10.85;;
76873;SDS011;65841;43.340;27.894;2022-12-08T05:29:27;28.23;;;10.88;;
76873;SDS011;65841;43.340;27.894;2022-12-08T05:31:53;29.00;;;9.30;;
76873;SDS011;65841;43.340;27.894;2022-12-08T05:34:20;31.27;;;10.10;;
76873;SDS011;65841;43.340;27.894;2022-12-08T05:36:46;26.42;;;10.48;;
76873;SDS011;65841;43.340;27.894;2022-12-08T05:39:12;33.13;;;10.80;;
76873;SDS011;65841;43.340;27.894;2022-12-08T05:41:38;40.13;;;11.57;;
76873;SDS011;65841;43.340;27.894;2022-12-08T05:44:04;36.70;;;14.40;;
76873;SDS011;65841;43.340;27.894;2022-12-08T05:46:30;26.30;;;10.57;;
76873;SDS011;65841;43.340;27.894;2022-12-08T05:48:58;36.85;;;11.85;;
76873;SDS011;65841;43.340;27.894;2022-12-08T05:51:24;47.50;;;13.98;;
76873;SDS011;65841;43.340;27.894;2022-12-08T05:53:50;58.47;;;18.50;;
76873;SDS011;65841;43.340;27.894;2022-12-08T05:56:17;41.72;;;13.30;;
76873;SDS011;65841;43.340;27.894;2022-12-08T05:58:43;57.33;;;18.23;;
76873;SDS011;65841;43.340;27.894;2022-12-08T06:01:20;52.65;;;18.20;;
76873;SDS011;65841;43.340;27.894;2022-12-08T06:03:46;48.83;;;17.42;;
76873;SDS011;65841;43.340;27.894;2022-12-08T06:06:12;58.78;;;18.40;;
76873;SDS011;65841;43.340;27.894;2022-12-08T06:08:38;44.13;;;14.98;;
76873;SDS011;65841;43.340;27.894;2022-12-08T06:11:04;37.10;;;11.68;;
76873;SDS011;65841;43.340;27.894;2022-12-08T06:13:31;35.22;;;9.88;;
76873;SDS011;65841;43.340;27.894;2022-12-08T06:16:02;61.08;;;20.85;;
76873;SDS011;65841;43.340;27.894;2022-12-08T06:18:28;21.67;;;7.22;;
76873;SDS011;65841;43.340;27.894;2022-12-08T06:21:15;19.10;;;6.68;;
76873;SDS011;65841;43.340;27.894;2022-12-08T06:23:41;23.55;;;8.43;;
76873;SDS011;65841;43.340;27.894;2022-12-08T06:26:09;31.45;;;8.48;;
76873;SDS011;65841;43.340;27.894;2022-12-08T06:28:35;23.00;;;9.57;;
76873;SDS011;65841;43.340;27.894;2022-12-08T06:31:09;40.10;;;11.23;;
76873;SDS011;65841;43.340;27.894;2022-12-08T06:33:35;35.03;;;13.10;;
76873;SDS011;65841;43.340;27.894;2022-12-08T06:36:02;30.52;;;11.00;;
76873;SDS011;65841;43.340;27.894;2022-12-08T06:38:28;21.63;;;7.72;;
76873;SDS011;65841;43.340;27.894;2022-12-08T06:40:55;34.00;;;12.88;;
76873;SDS011;65841;43.340;27.894;2022-12-08T06:43:21;37.83;;;11.15;;
76873;SDS011;65841;43.340;27.894;2022-12-08T06:45:47;28.15;;;9.93;;
76873;SDS011;65841;43.340;27.894;2022-12-08T06:48:14;31.98;;;10.90;;
76873;SDS011;65841;43.340;27.894;2022-12-08T06:50:40;29.40;;;10.43;;
76873;SDS011;65841;43.340;27.894;2022-12-08T06:53:06;40.78;;;12.38;;
76873;SDS011;65841;43.340;27.894;2022-12-08T06:55:32;42.90;;;12.27;;
76873;SDS011;65841;43.340;27.894;2022-12-08T06:57:58;34.67;;;10.50;;
76873;SDS011;65841;43.340;27.894;2022-12-08T07:00:24;46.03;;;15.52;;
76873;SDS011;65841;43.340;27.894;2022-12-08T07:02:51;61.67;;;23.65;;
76873;SDS011;65841;43.340;27.894;2022-12-08T07:05:17;43.00;;;14.63;;
76873;SDS011;65841;43.340;27.894;2022-12-08T07:07:43;28.13;;;9.25;;
76873;SDS011;65841;43.340;27.894;2022-12-08T07:10:09;30.92;;;11.85;;
76873;SDS011;65841;43.340;27.894;2022-12-08T07:12:35;25.40;;;9.93;;
76873;SDS011;65841;43.340;27.894;2022-12-08T07:15:03;37.10;;;11.30;;
76873;SDS011;65841;43.340;27.894;2022-12-08T07:19:55;39.35;;;11.85;;
76873;SDS011;65841;43.340;27.894;2022-12-08T07:22:21;41.40;;;13.00;;
76873;SDS011;65841;43.340;27.894;2022-12-08T07:24:47;42.53;;;13.40;;
76873;SDS011;65841;43.340;27.894;2022-12-08T07:27:13;58.88;;;16.92;;
76873;SDS011;65841;43.340;27.894;2022-12-08T07:29:39;64.75;;;19.27;;
76873;SDS011;65841;43.340;27.894;2022-12-08T07:32:06;22.23;;;8.55;;
76873;SDS011;65841;43.340;27.894;2022-12-08T07:34:32;35.47;;;7.97;;
76873;SDS011;65841;43.340;27.894;2022-12-08T07:36:58;29.50;;;8.68;;
76873;SDS011;65841;43.340;27.894;2022-12-08T07:39:25;26.58;;;9.18;;
76873;SDS011;65841;43.340;27.894;2022-12-08T07:41:51;29.42;;;7.55;;
76873;SDS011;65841;43.340;27.894;2022-12-08T07:44:17;41.97;;;13.95;;
76873;SDS011;65841;43.340;27.894;2022-12-08T07:46:43;22.77;;;10.02;;
76873;SDS011;65841;43.340;27.894;2022-12-08T07:49:10;21.85;;;7.72;;
76873;SDS011;65841;43.340;27.894;2022-12-08T07:51:36;21.55;;;7.45;;
76873;SDS011;65841;43.340;27.894;2022-12-08T07:54:02;19.15;;;6.75;;
76873;SDS011;65841;43.340;27.894;2022-12-08T07:56:28;18.55;;;7.32;;
76873;SDS011;65841;43.340;27.894;2022-12-08T08:13:03;25.33;;;9.88;;
76873;SDS011;65841;43.340;27.894;2022-12-08T08:15:29;27.70;;;8.25;;
76873;SDS011;65841;43.340;27.894;2022-12-08T08:17:55;37.67;;;9.55;;
76873;SDS011;65841;43.340;27.894;2022-12-08T08:20:21;26.95;;;9.50;;
76873;SDS011;65841;43.340;27.894;2022-12-08T08:22:48;42.90;;;7.63;;
76873;SDS011;65841;43.340;27.894;2022-12-08T08:25:14;38.50;;;8.65;;
76873;SDS011;65841;43.340;27.894;2022-12-08T08:27:41;33.53;;;8.88;;
76873;SDS011;65841;43.340;27.894;2022-12-08T08:30:07;50.05;;;9.30;;
76873;SDS011;65841;43.340;27.894;2022-12-08T08:32:34;37.30;;;9.45;;
76873;SDS011;65841;43.340;27.894;2022-12-08T08:35:00;18.67;;;7.68;;
76873;SDS011;65841;43.340;27.894;2022-12-08T08:37:27;24.95;;;9.45;;
76873;SDS011;65841;43.340;27.894;2022-12-08T08:39:53;23.95;;;9.18;;
76873;SDS011;65841;43.340;27.894;2022-12-08T08:44:46;33.03;;;9.63;;
76873;SDS011;65841;43.340;27.894;2022-12-08T08:47:12;26.90;;;9.50;;
76873;SDS011;65841;43.340;27.894;2022-12-08T08:49:38;33.22;;;11.30;;
76873;SDS011;65841;43.340;27.894;2022-12-08T08:52:05;26.98;;;10.93;;
76873;SDS011;65841;43.340;27.894;2022-12-08T08:54:31;21.83;;;9.60;;
76873;SDS011;65841;43.340;27.894;2022-12-08T08:56:58;29.13;;;11.32;;
76873;SDS011;65841;43.340;27.894;2022-12-08T08:59:24;23.50;;;10.10;;
76873;SDS011;65841;43.340;27.894;2022-12-08T09:01:51;23.25;;;10.48;;
76873;SDS011;65841;43.340;27.894;2022-12-08T09:04:17;19.77;;;9.00;;
76873;SDS011;65841;43.340;27.894;2022-12-08T09:06:43;20.88;;;9.38;;
76873;SDS011;65841;43.340;27.894;2022-12-08T09:09:10;21.10;;;9.00;;
76873;SDS011;65841;43.340;27.894;2022-12-08T09:11:36;17.83;;;8.75;;
76873;SDS011;65841;43.340;27.894;2022-12-08T09:14:03;22.13;;;10.30;;
76873;SDS011;65841;43.340;27.894;2022-12-08T09:16:29;20.25;;;9.60;;
76873;SDS011;65841;43.340;27.894;2022-12-08T09:18:55;17.58;;;9.07;;
76873;SDS011;65841;43.340;27.894;2022-12-08T09:21:22;17.15;;;9.25;;
76873;SDS011;65841;43.340;27.894;2022-12-08T09:23:54;19.33;;;8.55;;
76873;SDS011;65841;43.340;27.894;2022-12-08T09:26:20;16.88;;;9.45;;
76873;SDS011;65841;43.340;27.894;2022-12-08T09:28:47;16.90;;;8.00;;
76873;SDS011;65841;43.340;27.894;2022-12-08T09:31:14;16.02;;;8.65;;
76873;SDS011;65841;43.340;27.894;2022-12-08T09:33:41;20.65;;;8.30;;
76873;SDS011;65841;43.340;27.894;2022-12-08T09:36:08;21.83;;;10.45;;
76873;SDS011;65841;43.340;27.894;2022-12-08T09:41:01;21.40;;;9.68;;
76873;SDS011;65841;43.340;27.894;2022-12-08T09:43:39;15.45;;;8.27;;
76873;SDS011;65841;43.340;27.894;2022-12-08T09:46:08;11.48;;;6.82;;
76873;SDS011;65841;43.340;27.894;2022-12-08T09:48:39;11.88;;;7.20;;
76873;SDS011;65841;43.340;27.894;2022-12-08T09:51:07;11.57;;;7.72;;
76873;SDS011;65841;43.340;27.894;2022-12-08T09:53:34;12.35;;;7.45;;
76873;SDS011;65841;43.340;27.894;2022-12-08T09:56:03;13.82;;;7.85;;
76873;SDS011;65841;43.340;27.894;2022-12-08T09:58:50;13.05;;;7.18;;
76873;SDS011;65841;43.340;27.894;2022-12-08T10:01:21;11.00;;;6.53;;
76873;SDS011;65841;43.340;27.894;2022-12-08T10:03:48;12.80;;;7.03;;
76873;SDS011;65841;43.340;27.894;2022-12-08T10:11:18;13.63;;;7.63;;
76873;SDS011;65841;43.340;27.894;2022-12-08T10:13:52;14.43;;;7.55;;
76873;SDS011;65841;43.340;27.894;2022-12-08T10:16:33;13.77;;;8.30;;
76873;SDS011;65841;43.340;27.894;2022-12-08T10:19:09;15.98;;;9.25;;
76873;SDS011;65841;43.340;27.894;2022-12-08T10:21:36;14.13;;;8.93;;
76873;SDS011;65841;43.340;27.894;2022-12-08T10:24:05;16.58;;;8.52;;
76873;SDS011;65841;43.340;27.894;2022-12-08T10:26:34;10.30;;;6.45;;
76873;SDS011;65841;43.340;27.894;2022-12-08T10:29:00;12.55;;;7.10;;
76873;SDS011;65841;43.340;27.894;2022-12-08T10:31:29;14.95;;;7.15;;
76873;SDS011;65841;43.340;27.894;2022-12-08T10:33:56;11.75;;;6.68;;
76873;SDS011;65841;43.340;27.894;2022-12-08T10:36:44;12.25;;;7.25;;
76873;SDS011;65841;43.340;27.894;2022-12-08T10:42:01;12.88;;;7.20;;
76873;SDS011;65841;43.340;27.894;2022-12-08T10:44:31;11.07;;;6.63;;
76873;SDS011;65841;43.340;27.894;2022-12-08T10:46:58;13.10;;;7.72;;
76873;SDS011;65841;43.340;27.894;2022-12-08T10:49:25;12.40;;;8.20;;
76873;SDS011;65841;43.340;27.894;2022-12-08T10:51:52;13.23;;;8.15;;
76873;SDS011;65841;43.340;27.894;2022-12-08T10:56:53;18.20;;;9.15;;
76873;SDS011;65841;43.340;27.894;2022-12-08T10:59:20;17.30;;;8.35;;
76873;SDS011;65841;43.340;27.894;2022-12-08T11:01:48;15.20;;;8.70;;
76873;SDS011;65841;43.340;27.894;2022-12-08T11:04:21;13.93;;;8.68;;
76873;SDS011;65841;43.340;27.894;2022-12-08T11:06:49;16.52;;;9.48;;
76873;SDS011;65841;43.340;27.894;2022-12-08T11:11:56;16.88;;;10.20;;
76873;SDS011;65841;43.340;27.894;2022-12-08T11:14:23;17.23;;;9.05;;
76873;SDS011;65841;43.340;27.894;2022-12-08T11:16:54;25.25;;;12.48;;
76873;SDS011;65841;43.340;27.894;2022-12-08T11:19:21;18.92;;;10.60;;
76873;SDS011;65841;43.340;27.894;2022-12-08T11:21:53;20.20;;;11.95;;
76873;SDS011;65841;43.340;27.894;2022-12-08T11:26:50;17.70;;;9.38;;
76873;SDS011;65841;43.340;27.894;2022-12-08T11:29:16;19.50;;;9.40;;
76873;SDS011;65841;43.340;27.894;2022-12-08T11:31:43;19.42;;;8.80;;
76873;SDS011;65841;43.340;27.894;2022-12-08T11:34:13;19.40;;;10.38;;
76873;SDS011;65841;43.340;27.894;2022-12-08T11:36:43;23.48;;;11.90;;
76873;SDS011;65841;43.340;27.894;2022-12-08T11:39:10;19.95;;;11.07;;
76873;SDS011;65841;43.340;27.894;2022-12-08T11:41:38;19.17;;;9.77;;
76873;SDS011;65841;43.340;27.894;2022-12-08T11:49:02;17.83;;;8.10;;
76873;SDS011;65841;43.340;27.894;2022-12-08T11:51:49;21.15;;;7.57;;
76873;SDS011;65841;43.340;27.894;2022-12-08T11:54:21;14.35;;;6.85;;
76873;SDS011;65841;43.340;27.894;2022-12-08T11:56:59;19.00;;;8.90;;
76873;SDS011;65841;43.340;27.894;2022-12-08T12:01:58;14.60;;;8.13;;
76873;SDS011;65841;43.340;27.894;2022-12-08T12:07:04;14.70;;;8.40;;
76873;SDS011;65841;43.340;27.894;2022-12-08T12:18:04;21.58;;;11.15;;
76873;SDS011;65841;43.340;27.894;2022-12-08T12:20:52;21.50;;;10.90;;
76873;SDS011;65841;43.340;27.894;2022-12-08T12:25:50;25.55;;;11.85;;
76873;SDS011;65841;43.340;27.894;2022-12-08T12:28:19;21.55;;;10.20;;
76873;SDS011;65841;43.340;27.894;2022-12-08T12:33:41;23.13;;;10.80;;
76873;SDS011;65841;43.340;27.894;2022-12-08T12:36:08;17.92;;;8.57;;
76873;SDS011;65841;43.340;27.894;2022-12-08T12:41:24;24.35;;;12.52;;
76873;SDS011;65841;43.340;27.894;2022-12-08T12:51:47;25.95;;;12.65;;
76873;SDS011;65841;43.340;27.894;2022-12-08T12:54:23;29.80;;;13.52;;
76873;SDS011;65841;43.340;27.894;2022-12-08T12:56:50;29.88;;;13.55;;
76873;SDS011;65841;43.340;27.894;2022-12-08T13:04:53;29.23;;;15.05;;
76873;SDS011;65841;43.340;27.894;2022-12-08T13:07:24;30.20;;;13.77;;
76873;SDS011;65841;43.340;27.894;2022-12-08T13:09:56;31.25;;;14.13;;
76873;SDS011;65841;43.340;27.894;2022-12-08T13:12:23;26.63;;;13.82;;
76873;SDS011;65841;43.340;27.894;2022-12-08T13:14:52;22.02;;;10.75;;
76873;SDS011;65841;43.340;27.894;2022-12-08T13:17:43;28.23;;;12.18;;
76873;SDS011;65841;43.340;27.894;2022-12-08T13:20:15;22.02;;;12.48;;
76873;SDS011;65841;43.340;27.894;2022-12-08T13:22:47;24.77;;;12.10;;
76873;SDS011;65841;43.340;27.894;2022-12-08T13:27:59;32.67;;;16.17;;
76873;SDS011;65841;43.340;27.894;2022-12-08T13:33:06;31.27;;;15.50;;
76873;SDS011;65841;43.340;27.894;2022-12-08T13:35:37;26.50;;;13.60;;
76873;SDS011;65841;43.340;27.894;2022-12-08T13:38:05;27.38;;;11.48;;
76873;SDS011;65841;43.340;27.894;2022-12-08T13:40:31;27.38;;;12.48;;
76873;SDS011;65841;43.340;27.894;2022-12-08T13:43:09;26.10;;;13.15;;
76873;SDS011;65841;43.340;27.894;2022-12-08T13:45:40;33.65;;;15.48;;
76873;SDS011;65841;43.340;27.894;2022-12-08T13:48:16;27.42;;;14.60;;
76873;SDS011;65841;43.340;27.894;2022-12-08T13:53:27;34.22;;;16.23;;
76873;SDS011;65841;43.340;27.894;2022-12-08T13:55:55;36.22;;;17.23;;
76873;SDS011;65841;43.340;27.894;2022-12-08T14:01:03;38.55;;;17.35;;
76873;SDS011;65841;43.340;27.894;2022-12-08T14:03:43;38.08;;;17.02;;
76873;SDS011;65841;43.340;27.894;2022-12-08T14:06:15;42.38;;;18.88;;
76873;SDS011;65841;43.340;27.894;2022-12-08T14:08:41;31.90;;;15.13;;
76873;SDS011;65841;43.340;27.894;2022-12-08T14:11:09;31.60;;;15.57;;
76873;SDS011;65841;43.340;27.894;2022-12-08T14:13:36;38.97;;;18.42;;
76873;SDS011;65841;43.340;27.894;2022-12-08T14:16:02;33.92;;;16.50;;
76873;SDS011;65841;43.340;27.894;2022-12-08T14:18:29;32.55;;;15.63;;
76873;SDS011;65841;43.340;27.894;2022-12-08T14:21:04;31.33;;;16.02;;
76873;SDS011;65841;43.340;27.894;2022-12-08T14:23:34;33.92;;;18.77;;
76873;SDS011;65841;43.340;27.894;2022-12-08T14:26:01;29.98;;;16.63;;
76873;SDS011;65841;43.340;27.894;2022-12-08T14:28:28;36.72;;;16.13;;
76873;SDS011;65841;43.340;27.894;2022-12-08T14:30:55;33.30;;;15.57;;
76873;SDS011;65841;43.340;27.894;2022-12-08T14:33:21;30.67;;;15.27;;
76873;SDS011;65841;43.340;27.894;2022-12-08T14:35:48;34.42;;;15.82;;
76873;SDS011;65841;43.340;27.894;2022-12-08T14:38:16;34.88;;;15.25;;
76873;SDS011;65841;43.340;27.894;2022-12-08T14:40:59;33.13;;;16.48;;
76873;SDS011;65841;43.340;27.894;2022-12-08T14:43:27;33.55;;;16.20;;
76873;SDS011;65841;43.340;27.894;2022-12-08T14:45:58;34.88;;;16.75;;
76873;SDS011;65841;43.340;27.894;2022-12-08T14:48:38;38.15;;;16.67;;
76873;SDS011;65841;43.340;27.894;2022-12-08T14:51:20;39.85;;;16.88;;
76873;SDS011;65841;43.340;27.894;2022-12-08T15:01:41;36.65;;;16.85;;
76873;SDS011;65841;43.340;27.894;2022-12-08T15:06:43;34.90;;;16.52;;
76873;SDS011;65841;43.340;27.894;2022-12-08T15:09:14;30.90;;;16.70;;
76873;SDS011;65841;43.340;27.894;2022-12-08T15:11:41;31.90;;;15.02;;
76873;SDS011;65841;43.340;27.894;2022-12-08T15:16:52;28.02;;;15.88;;
76873;SDS011;65841;43.340;27.894;2022-12-08T15:21:48;34.60;;;16.10;;
76873;SDS011;65841;43.340;27.894;2022-12-08T15:24:15;36.15;;;17.92;;
76873;SDS011;65841;43.340;27.894;2022-12-08T15:26:45;32.67;;;15.52;;
76873;SDS011;65841;43.340;27.894;2022-12-08T15:29:22;34.30;;;17.30;;
76873;SDS011;65841;43.340;27.894;2022-12-08T15:31:49;38.45;;;18.38;;
76873;SDS011;65841;43.340;27.894;2022-12-08T15:34:16;33.78;;;17.60;;
76873;SDS011;65841;43.340;27.894;2022-12-08T15:36:44;44.20;;;23.17;;
76873;SDS011;65841;43.340;27.894;2022-12-08T15:39:33;40.53;;;20.10;;
76873;SDS011;65841;43.340;27.894;2022-12-08T15:41:58;43.55;;;20.80;;
76873;SDS011;65841;43.340;27.894;2022-12-08T15:44:24;41.05;;;21.55;;
76873;SDS011;65841;43.340;27.894;2022-12-08T15:46:51;46.45;;;23.02;;
76873;SDS011;65841;43.340;27.894;2022-12-08T15:49:21;48.45;;;26.25;;
76873;SDS011;65841;43.340;27.894;2022-12-08T15:51:48;51.45;;;26.38;;
76873;SDS011;65841;43.340;27.894;2022-12-08T15:54:14;45.72;;;23.17;;
76873;SDS011;65841;43.340;27.894;2022-12-08T15:56:46;48.50;;;26.77;;
76873;SDS011;65841;43.340;27.894;2022-12-08T15:59:18;58.45;;;30.35;;
76873;SDS011;65841;43.340;27.894;2022-12-08T16:01:44;93.25;;;46.47;;
76873;SDS011;65841;43.340;27.894;2022-12-08T16:04:14;98.18;;;49.05;;
76873;SDS011;65841;43.340;27.894;2022-12-08T16:06:45;103.50;;;51.45;;
76873;SDS011;65841;43.340;27.894;2022-12-08T16:09:13;76.10;;;36.75;;
76873;SDS011;65841;43.340;27.894;2022-12-08T16:11:41;60.70;;;31.10;;
76873;SDS011;65841;43.340;27.894;2022-12-08T16:14:26;50.67;;;26.17;;
76873;SDS011;65841;43.340;27.894;2022-12-08T16:16:52;42.35;;;21.77;;
76873;SDS011;65841;43.340;27.894;2022-12-08T16:19:18;44.20;;;19.80;;
76873;SDS011;65841;43.340;27.894;2022-12-08T16:21:44;39.92;;;19.38;;
76873;SDS011;65841;43.340;27.894;2022-12-08T16:24:10;33.40;;;18.17;;
76873;SDS011;65841;43.340;27.894;2022-12-08T16:26:37;49.17;;;25.00;;
76873;SDS011;65841;43.340;27.894;2022-12-08T16:29:04;58.53;;;28.88;;
76873;SDS011;65841;43.340;27.894;2022-12-08T16:31:30;50.47;;;25.38;;
76873;SDS011;65841;43.340;27.894;2022-12-08T16:33:56;44.33;;;20.67;;
76873;SDS011;65841;43.340;27.894;2022-12-08T16:36:23;65.00;;;32.78;;
76873;SDS011;65841;43.340;27.894;2022-12-08T16:38:49;80.63;;;35.58;;
76873;SDS011;65841;43.340;27.894;2022-12-08T16:41:15;66.78;;;32.08;;
76873;SDS011;65841;43.340;27.894;2022-12-08T16:44:02;65.60;;;31.27;;
76873;SDS011;65841;43.340;27.894;2022-12-08T16:46:29;64.22;;;29.13;;
76873;SDS011;65841;43.340;27.894;2022-12-08T16:48:55;62.53;;;28.63;;
76873;SDS011;65841;43.340;27.894;2022-12-08T16:51:23;61.20;;;26.67;;
76873;SDS011;65841;43.340;27.894;2022-12-08T16:53:50;49.22;;;25.40;;